Time;durP1;ratioP1;P1;durP2;ratioP2;P2;SDS_P1;SDS_P2;PMS_P1;PMS_P2;Temp;Humidity;BMP_temperature;BMP_pressure;BME280_temperature;BME280_humidity;BME280_pressure;Samples;Min_cycle;Max_cycle;Signal;HPM_P1;HPM_P2
2021/07/30 00:00:16;;;;;;;4.03;2.83;;;14.30;99.90;;;;;;4973423;28;20113;-79
2021/07/30 00:02:42;;;;;;;3.65;2.90;;;14.30;99.90;;;;;;4991032;28;20077;-79
2021/07/30 00:05:09;;;;;;;4.35;2.78;;;14.30;99.90;;;;;;5007854;28;20473;-79
2021/07/30 00:07:34;;;;;;;3.55;2.55;;;14.20;99.90;;;;;;4981272;28;20057;-79
2021/07/30 00:10:00;;;;;;;2.78;2.55;;;14.20;99.90;;;;;;4995014;28;20066;-79
2021/07/30 00:12:26;;;;;;;5.15;2.90;;;14.10;99.90;;;;;;4988195;28;20373;-79
2021/07/30 00:14:51;;;;;;;3.72;2.95;;;14.20;99.90;;;;;;5011242;28;20034;-79
2021/07/30 00:17:17;;;;;;;3.38;2.80;;;14.10;99.90;;;;;;4970537;28;20069;-79
2021/07/30 00:19:43;;;;;;;4.28;2.78;;;14.10;99.90;;;;;;4981464;28;20088;-79
2021/07/30 00:22:08;;;;;;;5.25;3.20;;;14.00;99.90;;;;;;4983303;28;20037;-79
2021/07/30 00:24:34;;;;;;;3.65;2.90;;;14.00;99.90;;;;;;5008455;28;20108;-79
2021/07/30 00:27:00;;;;;;;3.75;2.33;;;14.00;99.90;;;;;;4981522;28;20033;-79
2021/07/30 00:29:25;;;;;;;3.75;2.83;;;13.90;99.90;;;;;;4974270;28;20496;-79
2021/07/30 00:31:51;;;;;;;3.78;2.90;;;13.90;99.90;;;;;;4970642;28;20038;-79
2021/07/30 00:34:17;;;;;;;3.83;3.00;;;13.90;99.90;;;;;;4974951;28;20026;-79
2021/07/30 00:36:42;;;;;;;3.63;2.85;;;13.80;99.90;;;;;;4967216;28;20027;-79
2021/07/30 00:39:08;;;;;;;8.85;3.03;;;13.80;99.90;;;;;;5010967;28;20105;-79
2021/07/30 00:41:39;;;;;;;3.20;2.75;;;13.70;99.90;;;;;;4997028;28;20061;-79
2021/07/30 00:44:08;;;;;;;3.15;2.50;;;13.80;99.90;;;;;;4978862;28;20061;-79
2021/07/30 00:46:35;;;;;;;4.07;2.90;;;13.70;99.90;;;;;;5012650;28;20034;-79
2021/07/30 00:49:02;;;;;;;6.10;3.10;;;13.80;99.90;;;;;;5008447;28;20053;-79
2021/07/30 00:51:28;;;;;;;3.30;2.47;;;13.70;99.90;;;;;;5014434;28;20033;-79
2021/07/30 00:53:55;;;;;;;3.28;2.55;;;13.80;99.90;;;;;;4996716;28;20514;-79
2021/07/30 00:56:22;;;;;;;2.70;2.15;;;13.70;99.90;;;;;;5009051;28;20041;-79
2021/07/30 00:58:48;;;;;;;4.07;2.83;;;13.80;99.90;;;;;;5003621;28;20044;-79
2021/07/30 01:01:15;;;;;;;4.60;3.28;;;13.80;99.90;;;;;;5011442;28;20301;-79
2021/07/30 01:03:40;;;;;;;4.00;3.10;;;13.80;99.90;;;;;;5011172;28;20384;-79
2021/07/30 01:06:06;;;;;;;5.20;3.15;;;13.70;99.90;;;;;;5012062;28;20116;-78
2021/07/30 01:08:32;;;;;;;3.83;2.70;;;13.50;99.90;;;;;;4995296;28;20068;-79
2021/07/30 01:10:58;;;;;;;4.15;3.17;;;13.50;99.90;;;;;;5002491;28;20113;-79
2021/07/30 01:13:23;;;;;;;4.03;3.00;;;13.60;99.90;;;;;;4989305;28;20129;-78
2021/07/30 01:15:50;;;;;;;3.45;2.80;;;13.60;99.90;;;;;;4959690;28;20084;-79
2021/07/30 01:18:16;;;;;;;3.63;2.78;;;13.70;99.90;;;;;;5000315;28;20030;-79
2021/07/30 01:20:44;;;;;;;10.52;3.05;;;13.80;99.90;;;;;;4954956;28;20044;-79
2021/07/30 01:23:13;;;;;;;3.95;3.10;;;13.90;99.90;;;;;;4984407;28;20030;-79
2021/07/30 01:25:39;;;;;;;3.80;2.83;;;13.90;99.90;;;;;;4988378;28;20049;-77
2021/07/30 01:28:05;;;;;;;3.60;2.80;;;14.00;99.90;;;;;;4984279;28;20027;-77
2021/07/30 01:30:31;;;;;;;3.40;2.70;;;14.10;99.90;;;;;;5009414;28;20030;-79
2021/07/30 01:32:56;;;;;;;3.88;3.30;;;14.10;99.90;;;;;;5006415;28;20084;-79
2021/07/30 01:35:22;;;;;;;4.13;3.13;;;14.20;99.90;;;;;;4992229;28;20022;-79
2021/07/30 01:37:48;;;;;;;5.10;2.83;;;14.20;99.90;;;;;;5005109;28;20042;-76
2021/07/30 01:40:15;;;;;;;4.00;2.90;;;14.30;99.90;;;;;;4995521;28;20133;-79
2021/07/30 01:42:41;;;;;;;4.95;2.65;;;14.30;99.90;;;;;;5002884;28;20038;-77
2021/07/30 01:45:08;;;;;;;3.58;3.13;;;14.30;99.90;;;;;;4974016;28;20526;-78
2021/07/30 01:47:35;;;;;;;3.78;2.70;;;14.40;99.90;;;;;;5002668;28;20029;-76
2021/07/30 01:50:01;;;;;;;4.53;3.10;;;14.40;99.90;;;;;;5005664;28;20433;-79
2021/07/30 01:52:27;;;;;;;6.18;2.80;;;14.40;99.90;;;;;;5005751;28;20030;-79
2021/07/30 01:54:53;;;;;;;3.22;2.92;;;14.40;99.90;;;;;;5001918;28;20542;-79
2021/07/30 01:57:19;;;;;;;3.45;2.83;;;14.50;99.90;;;;;;4972222;28;20038;-79
2021/07/30 01:59:45;;;;;;;4.95;3.00;;;14.50;99.90;;;;;;5002953;28;20034;-79
2021/07/30 02:02:11;;;;;;;5.68;3.25;;;14.40;99.90;;;;;;4984883;28;20035;-79
2021/07/30 02:04:37;;;;;;;3.22;2.92;;;14.40;99.90;;;;;;4993822;28;20057;-79
2021/07/30 02:07:03;;;;;;;3.78;2.70;;;14.40;99.90;;;;;;4995559;28;20483;-79
2021/07/30 02:09:31;;;;;;;3.35;2.85;;;14.30;99.90;;;;;;5002801;28;20481;-78
2021/07/30 02:11:57;;;;;;;5.00;2.83;;;14.30;99.90;;;;;;4955780;28;20033;-79
2021/07/30 02:14:25;;;;;;;5.30;3.22;;;14.30;99.90;;;;;;5005071;28;20160;-78
2021/07/30 02:16:57;;;;;;;4.93;2.92;;;14.30;99.90;;;;;;5010809;28;20045;-79
2021/07/30 02:19:25;;;;;;;6.65;3.35;;;14.20;99.90;;;;;;5008277;28;20176;-79
2021/07/30 02:21:52;;;;;;;4.57;2.70;;;14.20;99.90;;;;;;4991294;28;20032;-79
2021/07/30 02:24:19;;;;;;;4.97;3.03;;;14.10;99.90;;;;;;5005569;28;20033;-79
2021/07/30 02:26:44;;;;;;;5.32;3.50;;;14.10;99.90;;;;;;4969595;28;20121;-76
2021/07/30 02:29:10;;;;;;;4.80;3.05;;;14.10;99.90;;;;;;4968919;28;20033;-79
2021/07/30 02:31:36;;;;;;;3.55;2.85;;;14.10;99.90;;;;;;4987079;28;20026;-78
2021/07/30 02:34:02;;;;;;;3.55;3.15;;;14.10;99.90;;;;;;4968161;28;20567;-79
2021/07/30 02:36:28;;;;;;;3.88;2.90;;;14.10;99.90;;;;;;4984288;28;20401;-79
2021/07/30 02:38:53;;;;;;;4.35;3.60;;;14.10;99.90;;;;;;5005406;28;20062;-79
2021/07/30 02:41:19;;;;;;;4.53;3.05;;;14.10;99.90;;;;;;4986079;28;20372;-79
2021/07/30 02:43:45;;;;;;;4.10;3.22;;;14.10;99.90;;;;;;5003058;28;20050;-79
2021/07/30 02:46:14;;;;;;;6.20;3.03;;;14.10;99.90;;;;;;5005744;28;20085;-79
2021/07/30 02:48:40;;;;;;;3.70;2.70;;;14.10;99.90;;;;;;4968366;28;20045;-79
2021/07/30 02:51:05;;;;;;;3.17;2.80;;;14.10;99.90;;;;;;4970782;28;20034;-79
2021/07/30 02:53:31;;;;;;;5.00;3.72;;;14.10;99.90;;;;;;4984003;28;20515;-79
2021/07/30 02:55:57;;;;;;;6.82;2.97;;;14.10;99.90;;;;;;5003159;28;20038;-79
2021/07/30 02:58:23;;;;;;;3.85;2.90;;;14.10;99.90;;;;;;5001953;28;20041;-79
2021/07/30 03:00:48;;;;;;;3.95;2.83;;;14.10;99.90;;;;;;4986623;28;20404;-76
2021/07/30 03:03:14;;;;;;;4.18;3.20;;;14.10;99.90;;;;;;5003904;28;20041;-76
2021/07/30 03:05:40;;;;;;;2.90;2.40;;;14.10;99.90;;;;;;4999463;28;20563;-76
2021/07/30 03:08:06;;;;;;;3.75;3.35;;;14.10;99.90;;;;;;5002187;28;20029;-79
2021/07/30 03:10:32;;;;;;;5.50;3.45;;;14.10;99.90;;;;;;4993501;28;20045;-76
2021/07/30 03:12:57;;;;;;;4.22;2.97;;;14.10;99.90;;;;;;5005086;28;20038;-79
2021/07/30 03:15:23;;;;;;;4.45;3.17;;;14.10;99.90;;;;;;4999834;28;20092;-79
2021/07/30 03:17:48;;;;;;;7.63;3.35;;;14.10;99.90;;;;;;4984509;28;20032;-79
2021/07/30 03:20:14;;;;;;;4.05;2.90;;;14.10;99.90;;;;;;5004609;28;20508;-79
2021/07/30 03:22:40;;;;;;;3.83;2.70;;;14.10;99.90;;;;;;4992577;28;20034;-79
2021/07/30 03:25:06;;;;;;;5.07;3.30;;;14.00;99.90;;;;;;5003830;28;20030;-79
2021/07/30 03:27:32;;;;;;;5.47;3.50;;;14.00;99.90;;;;;;4969174;28;20084;-79
2021/07/30 03:29:58;;;;;;;4.45;3.30;;;14.10;99.90;;;;;;4993857;28;20105;-77
2021/07/30 03:32:24;;;;;;;4.00;3.30;;;14.00;99.90;;;;;;5000358;28;20026;-76
2021/07/30 03:34:50;;;;;;;3.92;3.20;;;14.00;99.90;;;;;;4954746;28;20047;-76
2021/07/30 03:37:16;;;;;;;3.85;3.25;;;14.00;99.90;;;;;;5001498;28;20172;-79
2021/07/30 03:39:41;;;;;;;3.35;3.05;;;14.00;99.90;;;;;;4991907;28;20042;-79
2021/07/30 03:42:08;;;;;;;5.75;4.50;;;14.00;99.90;;;;;;5004077;28;20054;-79
2021/07/30 03:44:36;;;;;;;2.97;2.63;;;13.90;99.90;;;;;;4992935;28;20034;-79
2021/07/30 03:47:01;;;;;;;4.50;3.38;;;13.90;99.90;;;;;;5010611;28;20057;-79
2021/07/30 03:49:27;;;;;;;5.82;3.67;;;13.90;99.90;;;;;;5004980;28;20512;-79
2021/07/30 03:51:53;;;;;;;4.13;3.60;;;13.90;99.90;;;;;;4997786;28;20435;-79
2021/07/30 03:54:18;;;;;;;4.75;3.60;;;13.90;99.90;;;;;;4971214;28;20034;-79
2021/07/30 03:56:45;;;;;;;5.32;3.20;;;13.90;99.90;;;;;;4958621;28;20417;-79
2021/07/30 03:59:11;;;;;;;4.68;3.97;;;13.90;99.90;;;;;;5005692;28;20396;-79
2021/07/30 04:01:37;;;;;;;3.90;2.90;;;13.90;99.90;;;;;;5007681;28;20042;-79
2021/07/30 04:04:03;;;;;;;4.78;3.38;;;13.90;99.90;;;;;;5007449;28;20030;-79
2021/07/30 04:06:29;;;;;;;4.80;3.35;;;13.90;99.90;;;;;;4990219;28;20038;-78
2021/07/30 04:08:55;;;;;;;4.85;3.65;;;13.90;99.90;;;;;;4987151;28;20031;-79
2021/07/30 04:11:21;;;;;;;4.18;3.25;;;13.90;99.90;;;;;;4993009;28;20033;-79
2021/07/30 04:13:46;;;;;;;4.45;3.17;;;13.90;99.90;;;;;;5009301;28;20026;-79
2021/07/30 04:16:12;;;;;;;4.97;3.28;;;13.90;99.90;;;;;;4997790;28;20042;-79
2021/07/30 04:18:38;;;;;;;4.68;3.22;;;13.90;99.90;;;;;;4987674;28;20092;-79
2021/07/30 04:21:08;;;;;;;4.75;3.80;;;13.90;99.90;;;;;;5008156;28;20044;-79
2021/07/30 04:23:34;;;;;;;5.88;3.40;;;14.00;99.90;;;;;;4995653;28;20033;-79
2021/07/30 04:26:00;;;;;;;3.90;2.97;;;14.00;99.90;;;;;;4980303;28;20030;-79
2021/07/30 04:28:25;;;;;;;5.20;3.65;;;14.00;99.90;;;;;;4996728;28;20535;-79
2021/07/30 04:30:52;;;;;;;3.75;3.10;;;14.10;99.90;;;;;;4994375;28;20042;-77
2021/07/30 04:33:17;;;;;;;4.50;3.60;;;14.10;99.90;;;;;;5006461;28;20072;-76
2021/07/30 04:35:43;;;;;;;4.05;3.38;;;14.20;99.90;;;;;;4991861;28;20034;-77
2021/07/30 04:38:09;;;;;;;6.47;3.47;;;14.20;99.90;;;;;;4972238;28;20117;-78
2021/07/30 04:40:37;;;;;;;6.03;3.42;;;14.20;99.90;;;;;;4987256;28;20424;-79
2021/07/30 04:43:03;;;;;;;7.15;3.03;;;14.30;99.90;;;;;;4994479;28;20026;-79
2021/07/30 04:45:28;;;;;;;5.72;3.55;;;14.30;99.90;;;;;;5006037;28;20041;-79
2021/07/30 04:47:54;;;;;;;6.28;3.67;;;14.30;99.90;;;;;;5007635;28;20037;-77
2021/07/30 04:50:20;;;;;;;5.47;3.17;;;14.30;99.90;;;;;;4993816;28;20559;-77
2021/07/30 04:52:45;;;;;;;5.63;4.03;;;14.30;99.90;;;;;;5004057;28;20037;-77
2021/07/30 04:55:11;;;;;;;6.10;3.42;;;14.30;99.90;;;;;;5009005;28;20125;-76
2021/07/30 04:57:38;;;;;;;4.65;3.22;;;14.20;99.90;;;;;;5010484;23;20072;-79
2021/07/30 05:00:04;;;;;;;4.80;3.33;;;14.20;99.90;;;;;;4996774;28;20058;-79
2021/07/30 05:02:30;;;;;;;8.68;5.80;;;14.20;99.90;;;;;;4980278;28;20395;-79
2021/07/30 05:04:56;;;;;;;8.52;5.38;;;14.30;99.90;;;;;;4997214;28;20030;-79
2021/07/30 05:07:22;;;;;;;10.73;4.82;;;14.30;99.90;;;;;;4966393;28;20073;-79
2021/07/30 05:09:48;;;;;;;14.52;10.35;;;14.30;99.90;;;;;;4985748;28;20065;-79
2021/07/30 05:12:14;;;;;;;6.95;4.80;;;14.30;99.90;;;;;;4983395;28;20050;-79
2021/07/30 05:14:40;;;;;;;7.28;5.03;;;14.40;99.90;;;;;;4994145;28;20026;-79
2021/07/30 05:17:06;;;;;;;4.85;3.65;;;14.40;99.90;;;;;;4966402;28;20447;-79
2021/07/30 05:19:32;;;;;;;6.57;3.88;;;14.50;99.90;;;;;;4965355;28;20045;-79
2021/07/30 05:21:57;;;;;;;5.90;4.07;;;14.50;99.90;;;;;;4987453;28;20027;-80
2021/07/30 05:24:23;;;;;;;3.80;3.35;;;14.60;99.90;;;;;;4975837;28;20046;-80
2021/07/30 05:26:49;;;;;;;4.93;3.15;;;14.70;99.90;;;;;;4983456;28;20117;-79
2021/07/30 05:29:14;;;;;;;4.90;3.50;;;14.70;99.90;;;;;;4984644;28;20035;-79
2021/07/30 05:31:40;;;;;;;6.00;3.70;;;14.80;99.90;;;;;;4985609;28;20482;-80
2021/07/30 05:34:06;;;;;;;3.75;3.33;;;15.00;99.90;;;;;;4966419;28;20612;-80
2021/07/30 05:36:32;;;;;;;4.80;3.25;;;15.10;99.90;;;;;;4972662;28;20053;-79
2021/07/30 05:38:57;;;;;;;6.50;3.63;;;15.20;99.90;;;;;;4976810;28;20038;-79
2021/07/30 05:41:23;;;;;;;3.05;2.75;;;15.40;99.90;;;;;;4985578;28;20064;-80
2021/07/30 05:43:50;;;;;;;5.82;3.50;;;15.60;99.90;;;;;;4994088;28;20026;-80
2021/07/30 05:46:19;;;;;;;4.45;3.33;;;15.90;99.90;;;;;;4976910;28;20068;-80
2021/07/30 05:48:45;;;;;;;5.40;2.83;;;16.10;99.90;;;;;;4945037;28;20031;-79
2021/07/30 05:51:13;;;;;;;3.55;2.90;;;16.50;99.90;;;;;;4989584;28;20026;-79
2021/07/30 05:53:40;;;;;;;4.25;2.70;;;16.90;99.90;;;;;;4992538;28;20496;-80
2021/07/30 05:56:05;;;;;;;3.15;2.63;;;17.30;99.90;;;;;;4976346;28;20081;-80
2021/07/30 05:58:32;;;;;;;3.13;2.50;;;17.70;99.90;;;;;;4994280;28;20034;-78
2021/07/30 06:00:58;;;;;;;2.90;2.53;;;18.10;99.90;;;;;;4990008;28;20023;-79
2021/07/30 06:03:23;;;;;;;3.28;2.20;;;18.50;99.90;;;;;;4983446;28;20562;-80
2021/07/30 06:05:49;;;;;;;3.20;2.47;;;18.80;99.90;;;;;;4991150;28;20038;-79
2021/07/30 06:08:15;;;;;;;2.95;2.28;;;19.10;99.90;;;;;;4993118;28;20400;-80
2021/07/30 06:10:41;;;;;;;2.55;2.25;;;19.40;99.90;;;;;;4992964;28;20039;-80
2021/07/30 06:13:07;;;;;;;3.05;2.17;;;19.70;99.90;;;;;;4970762;28;20034;-79
2021/07/30 06:15:33;;;;;;;2.65;2.40;;;19.90;99.90;;;;;;4993157;28;20026;-79
2021/07/30 06:18:02;;;;;;;2.30;2.08;;;20.20;99.90;;;;;;4975527;28;20041;-80
2021/07/30 06:20:28;;;;;;;2.47;2.28;;;20.40;99.90;;;;;;4974975;28;20030;-80
2021/07/30 06:22:53;;;;;;;2.15;1.50;;;20.70;99.90;;;;;;4971717;28;20034;-80
2021/07/30 06:25:19;;;;;;;2.67;2.28;;;21.00;99.90;;;;;;4973133;28;20042;-78
2021/07/30 06:27:45;;;;;;;2.45;2.00;;;21.20;99.90;;;;;;4991118;28;20589;-80
2021/07/30 06:30:11;;;;;;;2.00;1.63;;;21.50;99.90;;;;;;4975153;28;20098;-80
2021/07/30 06:32:40;;;;;;;1.40;1.23;;;21.70;99.90;;;;;;4975023;28;20504;-80
2021/07/30 06:35:07;;;;;;;2.55;1.70;;;21.80;99.90;;;;;;4992498;28;20030;-80
2021/07/30 06:37:35;;;;;;;3.50;1.80;;;22.00;99.90;;;;;;4992765;28;20097;-80
2021/07/30 06:40:02;;;;;;;1.85;1.67;;;22.20;99.90;;;;;;4992135;28;20107;-80
2021/07/30 06:42:28;;;;;;;1.70;1.48;;;22.50;99.90;;;;;;4992685;28;20113;-80
2021/07/30 06:44:53;;;;;;;1.98;1.38;;;22.70;99.90;;;;;;4975772;28;20061;-79
2021/07/30 06:47:21;;;;;;;3.20;1.60;;;22.80;99.90;;;;;;4987211;28;20489;-79
2021/07/30 06:49:47;;;;;;;4.22;1.63;;;22.90;99.90;;;;;;4992656;28;20053;-79
2021/07/30 06:52:13;;;;;;;1.60;1.40;;;23.10;99.90;;;;;;4958530;28;20121;-79
2021/07/30 06:54:41;;;;;;;2.80;1.52;;;23.10;99.90;;;;;;4951923;28;20506;-80
2021/07/30 06:57:07;;;;;;;1.50;1.40;;;23.30;99.90;;;;;;4981350;28;20072;-79
2021/07/30 06:59:33;;;;;;;1.75;1.05;;;23.40;99.90;;;;;;4964256;28;20042;-79
2021/07/30 07:02:01;;;;;;;1.90;1.50;;;23.60;99.90;;;;;;4986874;28;20041;-80
2021/07/30 07:04:28;;;;;;;2.05;1.67;;;23.70;99.90;;;;;;4976925;28;20038;-80
2021/07/30 07:06:53;;;;;;;1.67;1.48;;;24.00;99.90;;;;;;4995631;28;20030;-78
2021/07/30 07:09:19;;;;;;;1.48;1.38;;;24.20;99.90;;;;;;4995477;28;20026;-80
2021/07/30 07:11:45;;;;;;;1.45;1.20;;;24.40;98.70;;;;;;4994655;28;20029;-79
2021/07/30 07:14:12;;;;;;;1.88;1.35;;;24.50;96.10;;;;;;4989163;28;20030;-79
2021/07/30 07:16:37;;;;;;;1.50;1.40;;;24.70;98.70;;;;;;4992949;28;20058;-78
2021/07/30 07:19:06;;;;;;;2.00;1.63;;;24.90;97.00;;;;;;4974447;28;20042;-79
2021/07/30 07:21:35;;;;;;;1.40;1.30;;;25.00;94.00;;;;;;4978692;28;20053;-80
2021/07/30 07:24:01;;;;;;;1.70;1.60;;;25.00;95.60;;;;;;4993840;28;20019;-80
2021/07/30 07:26:27;;;;;;;1.90;1.70;;;25.10;92.90;;;;;;4995281;28;20053;-80
2021/07/30 07:28:53;;;;;;;1.63;1.50;;;25.00;93.20;;;;;;4984843;28;20469;-79
2021/07/30 07:31:18;;;;;;;2.50;1.52;;;25.00;93.60;;;;;;4994441;28;20113;-78
2021/07/30 07:33:44;;;;;;;2.72;1.70;;;25.00;90.10;;;;;;4997714;28;20397;-80
2021/07/30 07:36:10;;;;;;;2.72;1.70;;;25.00;87.70;;;;;;4990779;28;20445;-78
2021/07/30 07:38:36;;;;;;;2.80;1.77;;;25.20;92.50;;;;;;4953513;28;20034;-79
2021/07/30 07:41:02;;;;;;;2.03;1.40;;;25.10;83.40;;;;;;4975235;28;20053;-80
2021/07/30 07:43:28;;;;;;;1.65;1.38;;;25.20;89.90;;;;;;4979232;28;20026;-78
2021/07/30 07:45:53;;;;;;;1.77;1.48;;;25.20;90.10;;;;;;4976946;28;20039;-78
2021/07/30 07:48:19;;;;;;;1.30;1.20;;;25.10;84.60;;;;;;4976456;28;20044;-79
2021/07/30 07:50:45;;;;;;;1.45;1.35;;;25.10;84.60;;;;;;4988917;28;20030;-80
2021/07/30 07:53:18;;;;;;;2.15;1.75;;;25.00;87.80;;;;;;4995961;28;20030;-78
2021/07/30 07:55:44;;;;;;;2.22;1.60;;;24.90;84.60;;;;;;4992787;28;20023;-79
2021/07/30 07:58:10;;;;;;;2.78;1.70;;;24.60;86.10;;;;;;4983091;28;20041;-78
2021/07/30 08:00:36;;;;;;;2.58;1.42;;;24.40;89.40;;;;;;4973756;28;20077;-79
2021/07/30 08:03:02;;;;;;;2.03;1.23;;;24.30;90.10;;;;;;4961110;28;20054;-79
2021/07/30 08:05:28;;;;;;;1.85;1.50;;;24.20;84.60;;;;;;4979043;28;20117;-79
2021/07/30 08:07:54;;;;;;;1.98;1.60;;;24.00;90.70;;;;;;4981422;28;20030;-78
2021/07/30 08:10:20;;;;;;;1.80;1.27;;;24.00;91.90;;;;;;4980438;28;20026;-79
2021/07/30 08:12:46;;;;;;;1.98;1.63;;;24.00;86.90;;;;;;4972499;28;20374;-81
2021/07/30 08:15:12;;;;;;;1.52;1.40;;;24.00;90.80;;;;;;4989991;28;20059;-79
2021/07/30 08:17:38;;;;;;;1.98;1.70;;;24.20;92.10;;;;;;4966690;28;20469;-80
2021/07/30 08:20:07;;;;;;;2.60;1.73;;;24.50;91.00;;;;;;4971077;28;20038;-80
2021/07/30 08:22:33;;;;;;;3.33;1.50;;;24.80;90.60;;;;;;4984942;28;20061;-81
2021/07/30 08:24:59;;;;;;;1.40;1.30;;;25.20;85.50;;;;;;4977800;28;20655;-79
2021/07/30 08:27:25;;;;;;;1.83;1.42;;;25.40;77.80;;;;;;4978723;28;20027;-82
2021/07/30 08:29:50;;;;;;;2.65;1.40;;;25.60;80.50;;;;;;4962319;28;20105;-81
2021/07/30 08:32:17;;;;;;;2.40;1.70;;;25.60;82.80;;;;;;4984890;28;20247;-82
2021/07/30 08:34:43;;;;;;;3.30;1.70;;;25.70;86.80;;;;;;4990757;28;20034;-80
2021/07/30 08:37:10;;;;;;;1.73;1.63;;;25.90;86.30;;;;;;4978661;28;20035;-80
2021/07/30 08:39:36;;;;;;;1.98;1.67;;;26.00;85.60;;;;;;4992303;28;20026;-78
2021/07/30 08:42:03;;;;;;;1.40;1.30;;;26.10;71.70;;;;;;4967840;28;20026;-81
2021/07/30 08:44:30;;;;;;;2.42;1.60;;;26.20;78.40;;;;;;4969847;28;20542;-81
2021/07/30 08:46:56;;;;;;;1.70;1.60;;;26.30;76.50;;;;;;4985693;28;20232;-83
2021/07/30 08:49:22;;;;;;;1.92;1.70;;;26.20;80.10;;;;;;4987310;28;20030;-80
2021/07/30 08:52:12;;;;;;;2.08;1.70;;;26.00;76.90;;;;;;4965748;28;20026;-83
2021/07/30 08:54:39;;;;;;;1.65;1.55;;;25.90;73.10;;;;;;4970451;28;20136;-80
2021/07/30 08:57:09;;;;;;;1.77;1.50;;;25.80;79.80;;;;;;4978584;28;20035;-81
2021/07/30 08:59:38;;;;;;;2.03;1.63;;;25.50;74.80;;;;;;4980873;28;20038;-80
2021/07/30 09:02:05;;;;;;;1.85;1.33;;;25.60;75.00;;;;;;4943843;28;20327;-80
2021/07/30 09:04:31;;;;;;;2.00;1.75;;;25.40;77.50;;;;;;4990995;28;20050;-80
2021/07/30 09:06:58;;;;;;;2.13;1.75;;;25.50;78.90;;;;;;4978633;28;20843;-80
2021/07/30 09:09:24;;;;;;;3.25;1.77;;;25.50;76.20;;;;;;4989155;28;20347;-78
2021/07/30 09:11:58;;;;;;;2.95;1.70;;;25.50;82.50;;;;;;4977703;28;20041;-79
2021/07/30 09:14:38;;;;;;;1.95;1.63;;;25.30;75.00;;;;;;4982267;28;20085;-79
2021/07/30 09:17:05;;;;;;;1.92;1.70;;;25.30;84.90;;;;;;4977807;28;20146;-79
2021/07/30 09:19:32;;;;;;;2.80;1.70;;;25.20;81.20;;;;;;4975487;28;20181;-81
2021/07/30 09:22:09;;;;;;;2.40;2.20;;;25.10;79.40;;;;;;4970470;28;20022;-78
2021/07/30 09:24:42;;;;;;;3.45;2.10;;;24.80;76.80;;;;;;4986756;28;20029;-77
2021/07/30 09:27:12;;;;;;;3.28;1.73;;;24.80;75.00;;;;;;4986348;28;20034;-79
2021/07/30 09:29:39;;;;;;;2.95;2.08;;;24.70;81.30;;;;;;4969418;28;20027;-79
2021/07/30 09:32:13;;;;;;;2.05;1.85;;;24.40;74.10;;;;;;4988350;28;20030;-81
2021/07/30 09:34:47;;;;;;;2.65;2.13;;;24.40;74.30;;;;;;4971213;28;20400;-80
2021/07/30 09:37:22;;;;;;;2.20;2.00;;;24.20;81.70;;;;;;4978520;28;20039;-80
2021/07/30 09:39:52;;;;;;;3.35;2.00;;;24.20;87.00;;;;;;4957557;28;20616;-80
2021/07/30 09:42:20;;;;;;;2.30;2.10;;;24.30;86.30;;;;;;4985970;28;20400;-80
2021/07/30 09:44:53;;;;;;;4.18;2.30;;;24.30;84.20;;;;;;4969765;28;20031;-81
2021/07/30 09:47:20;;;;;;;2.47;1.95;;;24.30;80.90;;;;;;4986873;28;20042;-80
2021/07/30 09:49:47;;;;;;;3.35;2.50;;;24.20;83.90;;;;;;4974921;28;20093;-80
2021/07/30 09:52:15;;;;;;;2.80;2.30;;;24.30;81.10;;;;;;4987956;28;20026;-80
2021/07/30 09:54:50;;;;;;;3.38;2.35;;;24.30;82.80;;;;;;4985846;28;20034;-79
2021/07/30 09:57:22;;;;;;;4.95;2.63;;;24.20;76.40;;;;;;4967366;28;20038;-80
2021/07/30 09:59:48;;;;;;;2.92;2.20;;;24.10;76.90;;;;;;4972275;28;20039;-80
2021/07/30 10:02:19;;;;;;;3.17;2.58;;;24.00;82.10;;;;;;4946429;28;20034;-79
2021/07/30 10:04:46;;;;;;;2.20;2.00;;;24.10;81.30;;;;;;4979880;28;20034;-79
2021/07/30 10:07:15;;;;;;;2.90;2.30;;;24.10;82.70;;;;;;4979231;28;20030;-80
2021/07/30 10:12:37;;;;;;;2.75;2.25;;;24.10;84.70;;;;;;4966397;28;20529;-80
2021/07/30 10:15:05;;;;;;;3.67;2.50;;;24.10;84.40;;;;;;4964942;28;20488;-80
2021/07/30 10:17:32;;;;;;;3.25;2.20;;;24.10;85.90;;;;;;4984787;28;20180;-79
2021/07/30 10:20:00;;;;;;;5.15;2.30;;;24.20;84.80;;;;;;4976313;28;20035;-80
2021/07/30 10:22:49;;;;;;;2.13;1.92;;;24.20;86.80;;;;;;4978000;28;20039;-78
2021/07/30 10:25:47;;;;;;;2.55;2.05;;;24.20;87.40;;;;;;4978650;28;20081;-80
2021/07/30 10:28:22;;;;;;;2.42;2.05;;;24.30;84.20;;;;;;4978591;28;20029;-80
2021/07/30 10:30:54;;;;;;;2.30;2.10;;;24.30;86.50;;;;;;4978477;28;20105;-80
2021/07/30 10:33:36;;;;;;;2.72;2.22;;;24.40;83.80;;;;;;4968615;28;20395;-79
2021/07/30 10:36:07;;;;;;;4.07;2.30;;;24.40;85.10;;;;;;4985315;28;20036;-79
2021/07/30 10:38:33;;;;;;;9.18;3.42;;;24.10;75.90;;;;;;4977867;28;20420;-79
2021/07/30 10:40:59;;;;;;;4.25;2.35;;;24.00;83.60;;;;;;4962615;28;20029;-78
2021/07/30 10:43:28;;;;;;;2.33;2.05;;;24.00;85.70;;;;;;4976797;28;20022;-79
2021/07/30 10:46:10;;;;;;;2.90;2.20;;;24.10;89.10;;;;;;4981054;28;20034;-79
2021/07/30 10:48:40;;;;;;;2.80;2.60;;;24.00;85.30;;;;;;4970230;28;20027;-79
2021/07/30 10:51:18;;;;;;;3.17;2.50;;;24.10;82.30;;;;;;4970450;28;20091;-79
2021/07/30 10:54:03;;;;;;;2.85;2.55;;;24.10;81.20;;;;;;4983586;28;20037;-79
2021/07/30 10:56:29;;;;;;;2.40;2.20;;;24.10;81.00;;;;;;4985891;28;20034;-79
2021/07/30 10:58:58;;;;;;;3.17;2.00;;;24.10;82.60;;;;;;4997091;23;20520;-90
2021/07/30 11:01:43;;;;;;;3.67;2.08;;;24.20;86.30;;;;;;4990838;28;20026;-89
2021/07/30 11:04:12;;;;;;;3.08;2.65;;;24.20;84.00;;;;;;4975328;28;20026;-90
2021/07/30 11:06:41;;;;;;;2.40;2.20;;;24.30;85.40;;;;;;4974413;28;20034;-88
2021/07/30 11:09:12;;;;;;;2.85;2.38;;;24.30;81.60;;;;;;4964481;28;20066;-89
2021/07/30 11:11:57;;;;;;;3.38;2.50;;;24.40;82.10;;;;;;4963560;28;20113;-89
2021/07/30 11:14:45;;;;;;;3.70;2.53;;;24.40;83.10;;;;;;4974972;28;20493;-90
2021/07/30 11:17:12;;;;;;;2.75;2.22;;;24.40;85.00;;;;;;4991277;28;20034;-89
2021/07/30 11:19:48;;;;;;;2.38;2.17;;;24.50;87.90;;;;;;4974766;28;20654;-88
2021/07/30 11:22:18;;;;;;;5.00;2.63;;;24.50;82.10;;;;;;4990991;28;20037;-90
2021/07/30 11:24:52;;;;;;;24.08;8.02;;;24.50;82.20;;;;;;4974599;28;20117;-88
2021/07/30 11:27:20;;;;;;;4.13;2.83;;;24.50;83.20;;;;;;4974769;28;20049;-89
2021/07/30 11:29:52;;;;;;;3.42;2.50;;;24.50;81.80;;;;;;4975120;28;20499;-90
2021/07/30 11:32:20;;;;;;;3.08;2.35;;;24.50;82.70;;;;;;4991531;28;20472;-89
2021/07/30 11:34:48;;;;;;;3.25;2.65;;;24.60;82.00;;;;;;4974503;28;20069;-91
2021/07/30 11:37:16;;;;;;;4.72;3.17;;;24.70;78.20;;;;;;4974887;28;20036;-90
2021/07/30 11:39:45;;;;;;;4.82;2.60;;;24.60;75.70;;;;;;4974252;28;20030;-90
2021/07/30 11:42:13;;;;;;;3.08;2.60;;;24.70;80.60;;;;;;4975030;28;20515;-93
2021/07/30 11:44:43;;;;;;;2.92;2.30;;;24.70;78.80;;;;;;4974901;28;20034;-89
2021/07/30 11:47:09;;;;;;;2.45;2.25;;;24.80;85.00;;;;;;4958377;28;20389;-89
2021/07/30 11:49:37;;;;;;;4.70;2.35;;;24.90;82.90;;;;;;4955549;28;20042;-93
2021/07/30 11:52:19;;;;;;;4.10;2.00;;;25.10;82.30;;;;;;4955391;28;20037;-90
2021/07/30 11:55:42;;;;;;;3.33;3.00;;;25.20;77.70;;;;;;4989722;28;20023;-89
2021/07/30 11:58:59;;;;;;;5.40;2.80;;;25.40;79.00;;;;;;4972861;28;20432;-89
2021/07/30 12:01:34;;;;;;;3.53;2.70;;;25.60;80.20;;;;;;4972632;28;20030;-90
2021/07/30 12:04:42;;;;;;;4.18;2.28;;;25.50;77.50;;;;;;4975555;28;20041;-89
2021/07/30 12:10:23;;;;;;;5.43;3.30;;;25.90;79.20;;;;;;4992865;28;20129;-88
2021/07/30 12:12:51;;;;;;;3.20;2.58;;;26.20;78.30;;;;;;4994483;28;20058;-90
2021/07/30 12:15:19;;;;;;;2.53;2.30;;;26.30;71.20;;;;;;4994409;28;20027;-88
2021/07/30 12:17:45;;;;;;;3.88;2.60;;;26.50;77.30;;;;;;4994214;28;20030;-89
2021/07/30 12:20:13;;;;;;;3.65;2.33;;;26.70;78.60;;;;;;4994179;28;20378;-90
2021/07/30 12:22:44;;;;;;;2.55;2.30;;;26.90;77.60;;;;;;4994114;28;20034;-90
2021/07/30 12:25:15;;;;;;;3.95;2.50;;;27.00;74.40;;;;;;4945901;28;20038;-90
2021/07/30 12:27:42;;;;;;;5.78;3.10;;;27.20;73.20;;;;;;4977625;28;20026;-90
2021/07/30 12:30:23;;;;;;;3.45;2.65;;;26.90;68.70;;;;;;4961628;28;20129;-89
2021/07/30 12:32:49;;;;;;;3.65;2.50;;;27.00;66.90;;;;;;4993942;28;20030;-89
2021/07/30 12:35:17;;;;;;;4.45;2.60;;;27.00;74.80;;;;;;4993738;28;20415;-89
2021/07/30 12:38:06;;;;;;;2.90;2.50;;;27.10;64.20;;;;;;4993755;28;20030;-89
2021/07/30 12:40:38;;;;;;;3.90;2.58;;;27.00;68.10;;;;;;4993940;28;20168;-90
2021/07/30 12:43:13;;;;;;;2.83;2.53;;;27.00;72.80;;;;;;4977942;28;20039;-91
2021/07/30 12:45:42;;;;;;;2.45;2.25;;;27.20;76.00;;;;;;4993936;28;20402;-89
2021/07/30 12:48:08;;;;;;;2.65;2.17;;;27.40;73.90;;;;;;4993668;28;20029;-91
2021/07/30 12:50:40;;;;;;;2.80;2.50;;;27.50;69.30;;;;;;4977567;28;20031;-88
2021/07/30 12:53:05;;;;;;;2.33;2.13;;;27.90;72.50;;;;;;4961367;28;20030;-89
2021/07/30 12:55:31;;;;;;;3.08;2.47;;;28.10;64.60;;;;;;4977632;28;20030;-90